createdAt,value
2022-10-15T00:01:20.266Z,14.90
2022-10-15T00:03:47.203Z,14.90
2022-10-15T00:06:16.876Z,14.90
2022-10-15T00:08:43.819Z,14.90
2022-10-15T00:11:22.804Z,14.90
2022-10-15T00:13:50.524Z,14.80
2022-10-15T00:16:20.622Z,14.90
2022-10-15T00:18:48.097Z,14.90
2022-10-15T00:21:16.982Z,14.90
2022-10-15T00:23:44.375Z,14.90
2022-10-15T00:26:17.481Z,14.90
2022-10-15T00:28:45.080Z,14.90
2022-10-15T00:31:14.566Z,14.90
2022-10-15T00:33:41.920Z,14.90
2022-10-15T00:36:13.303Z,14.90
2022-10-15T00:38:40.250Z,14.90
2022-10-15T00:41:10.648Z,14.90
2022-10-15T00:43:45.845Z,14.90
2022-10-15T00:46:33.545Z,14.90
2022-10-15T00:51:41.248Z,14.90
2022-10-15T00:54:09.753Z,14.90
2022-10-15T00:56:37.782Z,14.90
2022-10-15T00:59:07.206Z,15.00
2022-10-15T01:01:35.087Z,15.00
2022-10-15T01:04:03.825Z,15.00
2022-10-15T01:06:30.585Z,14.90
2022-10-15T01:08:57.868Z,14.90
2022-10-15T01:11:37.035Z,15.00
2022-10-15T01:14:36.434Z,15.00
2022-10-15T01:17:17.689Z,15.00
2022-10-15T01:20:03.142Z,15.00
2022-10-15T01:23:05.435Z,15.00
2022-10-15T01:26:00.085Z,15.00
2022-10-15T01:28:43.396Z,15.00
2022-10-15T01:31:42.053Z,15.00
2022-10-15T01:37:15.754Z,15.00
2022-10-15T01:39:49.561Z,15.00
2022-10-15T01:42:29.833Z,15.00
2022-10-15T01:45:05.859Z,15.00
2022-10-15T01:47:54.607Z,15.00
2022-10-15T01:50:26.510Z,15.00
2022-10-15T01:52:56.104Z,15.00
2022-10-15T01:55:26.135Z,15.00
2022-10-15T01:57:56.589Z,15.00
2022-10-15T02:00:24.845Z,15.00
2022-10-15T02:02:51.630Z,15.00
2022-10-15T02:05:28.315Z,15.00
2022-10-15T02:08:16.611Z,15.10
2022-10-15T02:10:48.615Z,15.00
2022-10-15T02:13:32.493Z,15.10
2022-10-15T02:16:22.242Z,15.10
2022-10-15T02:19:06.617Z,15.10
2022-10-15T02:21:44.123Z,15.10
2022-10-15T02:24:21.853Z,15.00
2022-10-15T02:26:52.284Z,15.10
2022-10-15T02:29:23.267Z,15.10
2022-10-15T02:31:51.166Z,15.10
2022-10-15T02:34:21.154Z,15.10
2022-10-15T02:36:48.955Z,15.10
2022-10-15T02:39:21.040Z,15.10
2022-10-15T02:41:49.032Z,15.10
2022-10-15T02:44:15.835Z,15.10
2022-10-15T02:46:42.661Z,15.10
2022-10-15T02:49:10.864Z,15.10
2022-10-15T02:51:37.758Z,15.10
2022-10-15T02:54:06.028Z,15.20
2022-10-15T02:56:34.204Z,15.20
2022-10-15T02:59:01.997Z,15.20
2022-10-15T03:01:29.213Z,15.20
2022-10-15T03:03:56.023Z,15.20
2022-10-15T03:06:22.799Z,15.20
2022-10-15T03:08:49.692Z,15.20
2022-10-15T03:11:17.021Z,15.20
2022-10-15T03:13:43.798Z,15.20
2022-10-15T03:16:12.498Z,15.20
2022-10-15T03:18:41.816Z,15.20
2022-10-15T03:21:10.727Z,15.30
2022-10-15T03:23:39.104Z,15.30
2022-10-15T03:26:11.575Z,15.30
2022-10-15T03:28:38.574Z,15.30
2022-10-15T03:31:06.251Z,15.30
2022-10-15T03:33:32.979Z,15.30
2022-10-15T03:36:01.419Z,15.30
2022-10-15T03:38:28.266Z,15.40
2022-10-15T03:40:55.169Z,15.40
2022-10-15T03:43:42.879Z,15.40
2022-10-15T03:46:10.862Z,15.40
2022-10-15T03:48:42.158Z,15.40
2022-10-15T03:51:11.551Z,15.40
2022-10-15T03:53:40.142Z,15.40
2022-10-15T03:56:07.225Z,15.40
2022-10-15T03:58:37.898Z,15.40
2022-10-15T04:01:14.665Z,15.40
2022-10-15T04:03:42.156Z,15.40
2022-10-15T04:06:09.925Z,15.40
2022-10-15T04:08:38.039Z,15.50
2022-10-15T04:11:19.167Z,15.50
2022-10-15T04:13:50.465Z,15.50
2022-10-15T04:16:18.151Z,15.40
2022-10-15T04:18:44.977Z,15.50
2022-10-15T04:21:12.045Z,15.50
2022-10-15T04:23:41.248Z,15.50
2022-10-15T04:26:37.324Z,15.50
2022-10-15T04:29:04.709Z,15.50
2022-10-15T04:31:32.091Z,15.50
2022-10-15T04:33:59.416Z,15.50
2022-10-15T04:36:27.083Z,15.50
2022-10-15T04:39:01.758Z,15.50
2022-10-15T04:41:41.114Z,15.50
2022-10-15T04:44:11.908Z,15.50
2022-10-15T04:46:39.609Z,15.50
2022-10-15T04:49:32.414Z,15.40
2022-10-15T04:52:01.354Z,15.40
2022-10-15T04:54:30.769Z,15.40
2022-10-15T04:57:04.896Z,15.50
2022-10-15T04:59:32.881Z,15.50
2022-10-15T05:02:25.899Z,15.50
2022-10-15T05:04:58.026Z,15.50
2022-10-15T05:07:25.401Z,15.40
2022-10-15T05:09:53.949Z,15.40
2022-10-15T05:12:21.214Z,15.40
2022-10-15T05:14:48.037Z,15.50
2022-10-15T05:17:21.133Z,15.40
2022-10-15T05:19:48.394Z,15.40
2022-10-15T05:22:19.872Z,15.40
2022-10-15T05:24:51.906Z,15.40
2022-10-15T05:27:30.412Z,15.40
2022-10-15T05:29:57.223Z,15.40
2022-10-15T05:32:31.230Z,15.40
2022-10-15T05:34:58.513Z,15.30
2022-10-15T05:37:34.497Z,15.30
2022-10-15T05:40:01.372Z,15.30
2022-10-15T05:42:28.166Z,15.30
2022-10-15T05:44:58.243Z,15.30
2022-10-15T05:47:25.353Z,15.30
2022-10-15T05:50:11.755Z,15.30
2022-10-15T05:52:43.090Z,15.30
2022-10-15T05:55:18.666Z,15.30
2022-10-15T05:57:45.408Z,15.30
2022-10-15T06:00:12.854Z,15.30
2022-10-15T06:02:39.825Z,15.30
2022-10-15T06:05:07.050Z,15.30
2022-10-15T06:07:33.906Z,15.30
2022-10-15T06:10:05.584Z,15.30
2022-10-15T06:12:34.214Z,15.30
2022-10-15T06:15:01.106Z,15.30
2022-10-15T06:17:27.835Z,15.30
2022-10-15T06:19:54.590Z,15.30
2022-10-15T06:22:21.488Z,15.30
2022-10-15T06:24:48.321Z,15.30
2022-10-15T06:27:15.168Z,15.30
2022-10-15T06:29:41.919Z,15.30
2022-10-15T06:32:12.023Z,15.30
2022-10-15T06:34:43.678Z,15.30
2022-10-15T06:37:10.886Z,15.30
2022-10-15T06:39:37.633Z,15.30
2022-10-15T06:42:04.378Z,15.30
2022-10-15T06:44:39.156Z,15.30
2022-10-15T06:47:06.097Z,15.30
2022-10-15T06:49:32.853Z,15.30
2022-10-15T06:52:03.407Z,15.30
2022-10-15T06:54:30.496Z,15.30
2022-10-15T06:56:57.338Z,15.40
2022-10-15T06:59:24.140Z,15.40
2022-10-15T07:01:50.832Z,15.30
2022-10-15T07:04:17.535Z,15.30
2022-10-15T07:06:44.288Z,15.40
2022-10-15T07:09:11.076Z,15.40
2022-10-15T07:11:37.804Z,15.40
2022-10-15T07:14:04.558Z,15.40
2022-10-15T07:16:31.292Z,15.40
2022-10-15T07:18:58.071Z,15.40
2022-10-15T07:21:24.777Z,15.40
2022-10-15T07:23:51.609Z,15.40
2022-10-15T07:26:18.353Z,15.40
2022-10-15T07:28:45.249Z,15.40
2022-10-15T07:31:12.047Z,15.50
2022-10-15T07:33:39.045Z,15.50
2022-10-15T07:36:08.556Z,15.50
2022-10-15T07:38:35.829Z,15.50
2022-10-15T07:41:04.331Z,15.60
2022-10-15T07:43:33.018Z,15.60
2022-10-15T07:46:00.085Z,15.60
2022-10-15T07:48:26.963Z,15.60
2022-10-15T07:50:57.395Z,15.70
2022-10-15T07:53:24.842Z,15.70
2022-10-15T07:56:03.068Z,15.70
2022-10-15T07:58:38.089Z,15.70
2022-10-15T08:01:10.116Z,15.80
2022-10-15T08:03:37.628Z,15.70
2022-10-15T08:06:06.990Z,15.80
2022-10-15T08:08:34.822Z,15.80
2022-10-15T08:11:06.357Z,15.80
2022-10-15T08:13:33.401Z,15.90
2022-10-15T08:16:00.535Z,15.90
2022-10-15T08:18:27.654Z,15.90
2022-10-15T08:20:54.463Z,15.90
2022-10-15T08:23:21.308Z,15.90
2022-10-15T08:25:48.043Z,15.90
2022-10-15T08:28:15.299Z,16.00
2022-10-15T08:30:42.028Z,16.00
2022-10-15T08:33:12.514Z,16.00
2022-10-15T08:35:43.631Z,16.10
2022-10-15T08:38:14.737Z,16.10
2022-10-15T08:40:58.709Z,16.20
2022-10-15T08:43:31.495Z,16.20
2022-10-15T08:46:02.990Z,16.20
2022-10-15T08:48:38.017Z,16.20
2022-10-15T08:51:16.810Z,16.30
2022-10-15T08:54:05.120Z,16.30
2022-10-15T08:56:37.097Z,16.40
2022-10-15T08:59:36.927Z,16.40
2022-10-15T09:02:15.910Z,16.50
2022-10-15T09:04:55.211Z,16.50
2022-10-15T09:07:34.014Z,16.50
2022-10-15T09:10:30.204Z,16.50
2022-10-15T09:13:10.402Z,16.50
2022-10-15T09:15:50.416Z,16.50
2022-10-15T09:18:25.965Z,16.50
2022-10-15T09:20:54.116Z,16.60
2022-10-15T09:23:24.396Z,16.60
2022-10-15T09:26:07.330Z,16.60
2022-10-15T09:28:51.228Z,16.70
2022-10-15T09:31:27.022Z,16.60
2022-10-15T09:34:02.011Z,16.60
2022-10-15T09:36:45.851Z,16.70
2022-10-15T09:39:37.537Z,16.70
2022-10-15T09:42:18.576Z,16.70
2022-10-15T09:44:47.531Z,16.80
2022-10-15T09:47:30.670Z,16.80
2022-10-15T09:50:00.779Z,16.80
2022-10-15T09:52:52.435Z,16.80
2022-10-15T09:55:38.133Z,16.80
2022-10-15T09:58:20.554Z,16.80
2022-10-15T10:00:58.966Z,16.90
2022-10-15T10:03:37.093Z,16.80
2022-10-15T10:06:10.630Z,16.80
2022-10-15T10:08:50.759Z,16.90
2022-10-15T10:11:19.234Z,16.80
2022-10-15T10:13:50.689Z,16.90
2022-10-15T10:16:19.372Z,16.90
2022-10-15T10:19:15.072Z,16.90
2022-10-15T10:21:43.536Z,17.00
2022-10-15T10:24:31.782Z,17.10
2022-10-15T10:26:59.700Z,17.10
2022-10-15T10:29:33.962Z,17.20
2022-10-15T10:32:18.864Z,17.20
2022-10-15T10:34:51.488Z,17.30
2022-10-15T10:37:19.807Z,17.30
2022-10-15T10:39:52.761Z,17.50
2022-10-15T10:42:22.457Z,17.60
2022-10-15T10:44:49.430Z,17.60
2022-10-15T10:47:22.296Z,17.70
2022-10-15T10:49:56.047Z,17.80
2022-10-15T10:52:36.478Z,17.90
2022-10-15T10:55:19.395Z,17.90
2022-10-15T10:58:02.239Z,17.90
2022-10-15T11:00:46.714Z,17.90
2022-10-15T11:03:31.230Z,17.80
2022-10-15T11:06:19.200Z,17.80
2022-10-15T11:09:23.957Z,17.80
2022-10-15T11:12:24.683Z,17.80
2022-10-15T11:15:03.321Z,17.80
2022-10-15T11:17:42.896Z,17.80
2022-10-15T11:20:59.669Z,17.90
2022-10-15T11:23:42.723Z,17.90
2022-10-15T11:26:41.461Z,17.90
2022-10-15T11:29:36.138Z,17.90
2022-10-15T11:32:15.239Z,17.90
2022-10-15T11:35:08.719Z,17.90
2022-10-15T11:37:53.958Z,17.90
2022-10-15T11:40:49.415Z,17.90
2022-10-15T11:43:36.450Z,17.90
2022-10-15T11:46:11.058Z,17.90
2022-10-15T11:49:02.723Z,17.90
2022-10-15T11:52:00.970Z,18.00
2022-10-15T11:54:38.040Z,17.90
2022-10-15T11:57:10.125Z,17.90
2022-10-15T11:59:54.719Z,17.90
2022-10-15T12:02:38.816Z,18.00
2022-10-15T12:05:14.269Z,18.00
2022-10-15T12:07:43.657Z,18.00
2022-10-15T12:10:14.001Z,18.10
2022-10-15T12:12:59.395Z,18.00
2022-10-15T12:15:41.781Z,18.10
2022-10-15T12:18:38.429Z,18.10
2022-10-15T12:21:43.280Z,18.00
2022-10-15T12:24:37.991Z,18.00
2022-10-15T12:27:19.863Z,18.00
2022-10-15T12:30:09.048Z,17.90
2022-10-15T12:32:46.450Z,17.90
2022-10-15T12:35:16.390Z,17.80
2022-10-15T12:37:46.044Z,17.80
2022-10-15T12:40:31.868Z,17.80
2022-10-15T12:43:06.526Z,17.80
2022-10-15T12:45:40.224Z,17.70
2022-10-15T12:48:16.392Z,17.70
2022-10-15T12:50:43.928Z,17.70
2022-10-15T12:53:26.004Z,17.60
2022-10-15T12:56:11.420Z,17.60
2022-10-15T12:58:46.315Z,17.60
2022-10-15T13:01:16.069Z,17.60
2022-10-15T13:03:49.059Z,17.60
2022-10-15T13:06:24.552Z,17.60
2022-10-15T13:08:58.166Z,17.70
2022-10-15T13:11:48.915Z,17.70
2022-10-15T13:14:27.251Z,17.70
2022-10-15T13:16:56.484Z,17.70
2022-10-15T13:19:28.056Z,17.70
2022-10-15T13:22:00.323Z,17.70
2022-10-15T13:24:30.949Z,17.70
2022-10-15T13:27:00.511Z,17.70
2022-10-15T13:29:28.015Z,17.70
2022-10-15T13:31:57.469Z,17.60
2022-10-15T13:34:30.540Z,17.70
2022-10-15T13:37:00.858Z,17.60
2022-10-15T13:39:38.370Z,17.60
2022-10-15T13:42:17.149Z,17.60
2022-10-15T13:44:55.550Z,17.50
2022-10-15T13:47:37.426Z,17.50
2022-10-15T13:50:24.708Z,17.40
2022-10-15T13:53:07.539Z,17.40
2022-10-15T13:55:40.087Z,17.40
2022-10-15T13:58:46.297Z,17.30
2022-10-15T14:01:22.076Z,17.30
2022-10-15T14:03:59.977Z,17.30
2022-10-15T14:06:35.116Z,17.30
2022-10-15T14:09:18.265Z,17.30
2022-10-15T14:11:45.188Z,17.40
2022-10-15T14:14:48.179Z,17.30
2022-10-15T14:17:17.742Z,17.40
2022-10-15T14:20:14.285Z,17.30
2022-10-15T14:22:40.715Z,17.30
2022-10-15T14:27:45.748Z,17.40
2022-10-15T14:30:24.828Z,17.40
2022-10-15T14:32:52.531Z,17.40
2022-10-15T14:35:35.097Z,17.40
2022-10-15T14:38:10.963Z,17.40
2022-10-15T14:40:37.859Z,17.50
2022-10-15T14:43:07.104Z,17.50
2022-10-15T14:45:50.647Z,17.50
2022-10-15T14:48:22.518Z,17.60
2022-10-15T14:50:49.788Z,17.60
2022-10-15T14:53:21.877Z,17.60
2022-10-15T14:56:01.931Z,17.70
2022-10-15T14:58:29.898Z,17.70
2022-10-15T15:01:07.863Z,17.70
2022-10-15T15:03:48.187Z,17.70
2022-10-15T15:06:15.276Z,17.70
2022-10-15T15:08:42.396Z,17.70
2022-10-15T15:11:14.442Z,17.80
2022-10-15T15:13:44.528Z,17.80
2022-10-15T15:16:16.865Z,17.80
2022-10-15T15:18:46.116Z,17.80
2022-10-15T15:21:17.458Z,17.80
2022-10-15T15:23:44.692Z,17.90
2022-10-15T15:26:11.532Z,18.00
2022-10-15T15:28:38.469Z,18.00
2022-10-15T15:31:15.587Z,18.10
2022-10-15T15:33:42.344Z,18.10
2022-10-15T15:36:20.589Z,18.10
2022-10-15T15:38:49.642Z,18.10
2022-10-15T15:41:18.991Z,18.10
2022-10-15T15:43:46.486Z,18.10
2022-10-15T15:46:13.728Z,18.10
2022-10-15T15:48:40.767Z,18.00
2022-10-15T15:51:22.089Z,18.00
2022-10-15T15:53:48.854Z,17.90
2022-10-15T15:56:15.614Z,17.90
2022-10-15T15:58:42.462Z,17.90
2022-10-15T16:01:09.381Z,17.80
2022-10-15T16:03:36.207Z,17.80
2022-10-15T16:06:06.267Z,17.70
2022-10-15T16:08:33.409Z,17.70
2022-10-15T16:11:04.202Z,17.60
2022-10-15T16:13:31.378Z,17.60
2022-10-15T16:15:58.105Z,17.60
2022-10-15T16:18:24.962Z,17.50
2022-10-15T16:20:51.927Z,17.40
2022-10-15T16:23:18.753Z,17.40
2022-10-15T16:25:45.528Z,17.30
2022-10-15T16:28:12.330Z,17.30
2022-10-15T16:30:39.086Z,17.30
2022-10-15T16:35:38.608Z,17.20
2022-10-15T16:38:05.606Z,17.10
2022-10-15T16:40:32.614Z,17.10
2022-10-15T16:42:59.438Z,17.10
2022-10-15T16:45:26.300Z,17.10
2022-10-15T16:47:54.400Z,17.00
2022-10-15T16:50:21.297Z,17.00
2022-10-15T16:52:48.035Z,17.00
2022-10-15T16:55:16.610Z,17.00
2022-10-15T16:57:43.890Z,17.00
2022-10-15T17:00:11.288Z,16.90
2022-10-15T17:02:38.089Z,16.90
2022-10-15T17:05:05.226Z,16.80
2022-10-15T17:07:31.955Z,16.90
2022-10-15T17:09:58.724Z,16.80
2022-10-15T17:12:25.845Z,16.80
2022-10-15T17:14:52.892Z,16.70
2022-10-15T17:17:20.105Z,16.70
2022-10-15T17:19:47.005Z,16.70
2022-10-15T17:22:13.806Z,16.70
2022-10-15T17:24:40.593Z,16.70
2022-10-15T17:27:07.359Z,16.70
2022-10-15T17:29:34.213Z,16.70
2022-10-15T17:32:02.825Z,16.70
2022-10-15T17:34:29.746Z,16.70
2022-10-15T17:36:56.955Z,16.70
2022-10-15T17:39:24.261Z,16.70
2022-10-15T17:41:51.818Z,16.70
2022-10-15T17:44:19.134Z,16.70
2022-10-15T17:46:46.010Z,16.70
2022-10-15T17:49:17.971Z,16.70
2022-10-15T17:51:45.796Z,16.70
2022-10-15T17:54:12.766Z,16.70
2022-10-15T17:56:39.877Z,16.70
2022-10-15T17:59:08.450Z,16.70
2022-10-15T18:01:57.157Z,16.70
2022-10-15T18:04:24.915Z,16.70
2022-10-15T18:06:51.688Z,16.70
2022-10-15T18:09:24.805Z,16.70
2022-10-15T18:11:55.357Z,16.70
2022-10-15T18:14:22.205Z,16.70
2022-10-15T18:16:49.263Z,16.70
2022-10-15T18:19:16.111Z,16.70
2022-10-15T18:21:46.998Z,16.70
2022-10-15T18:24:19.139Z,16.70
2022-10-15T18:26:45.912Z,16.70
2022-10-15T18:29:12.729Z,16.70
2022-10-15T18:31:41.119Z,16.70
2022-10-15T18:34:07.901Z,16.70
2022-10-15T18:36:34.687Z,16.70
2022-10-15T18:39:01.521Z,16.70
2022-10-15T18:41:32.786Z,16.70
2022-10-15T18:44:01.689Z,16.70
2022-10-15T18:46:33.835Z,16.70
2022-10-15T18:49:01.232Z,16.70
2022-10-15T18:51:30.193Z,16.70
2022-10-15T18:53:57.015Z,16.70
2022-10-15T18:56:23.733Z,16.70
2022-10-15T18:58:52.397Z,16.70
2022-10-15T19:01:28.158Z,16.70
2022-10-15T19:03:57.068Z,16.70
2022-10-15T19:06:26.869Z,16.70
2022-10-15T19:09:00.127Z,16.70
2022-10-15T19:11:31.102Z,16.70
2022-10-15T19:13:59.215Z,16.70
2022-10-15T19:16:26.251Z,16.70
2022-10-15T19:18:53.338Z,16.70
2022-10-15T19:21:20.224Z,16.70
2022-10-15T19:23:47.212Z,16.70
2022-10-15T19:26:15.655Z,16.70
2022-10-15T19:28:42.965Z,16.70
2022-10-15T19:31:13.053Z,16.70
2022-10-15T19:33:39.858Z,16.70
2022-10-15T19:36:06.928Z,16.70
2022-10-15T19:38:33.937Z,16.70
2022-10-15T19:41:04.755Z,16.70
2022-10-15T19:43:31.531Z,16.70
2022-10-15T19:46:02.875Z,16.70
2022-10-15T19:48:30.441Z,16.70
2022-10-15T19:51:00.311Z,16.70
2022-10-15T19:53:27.252Z,16.70
2022-10-15T19:55:59.664Z,16.70
2022-10-15T19:58:26.453Z,16.70
2022-10-15T20:00:53.752Z,16.70
2022-10-15T20:03:21.708Z,16.70
2022-10-15T20:05:49.017Z,16.70
2022-10-15T20:08:16.706Z,16.70
2022-10-15T20:10:45.119Z,16.70
2022-10-15T20:13:13.266Z,16.70
2022-10-15T20:15:48.570Z,16.70
2022-10-15T20:18:16.686Z,16.70
2022-10-15T20:20:45.766Z,16.70
2022-10-15T20:23:14.982Z,16.70
2022-10-15T20:25:42.901Z,16.70
2022-10-15T20:28:11.159Z,16.70
2022-10-15T20:30:39.275Z,16.70
2022-10-15T20:33:06.987Z,16.70
2022-10-15T20:35:38.107Z,16.70
2022-10-15T20:38:05.616Z,16.70
2022-10-15T20:40:33.139Z,16.70
2022-10-15T20:43:00.058Z,16.70
2022-10-15T20:45:33.384Z,16.70
2022-10-15T20:48:00.747Z,16.70
2022-10-15T20:50:31.759Z,16.70
2022-10-15T20:52:58.866Z,16.70
2022-10-15T20:55:25.930Z,16.70
2022-10-15T20:57:52.786Z,16.60
2022-10-15T21:00:19.952Z,16.60
2022-10-15T21:02:46.938Z,16.60
2022-10-15T21:05:13.711Z,16.60
2022-10-15T21:07:40.587Z,16.50
2022-10-15T21:10:07.643Z,16.50
2022-10-15T21:12:34.475Z,16.50
2022-10-15T21:15:01.270Z,16.50
2022-10-15T21:17:28.398Z,16.50
2022-10-15T21:19:56.228Z,16.50
2022-10-15T21:22:23.400Z,16.50
2022-10-15T21:24:50.132Z,16.50
2022-10-15T21:27:19.355Z,16.50
2022-10-15T21:29:46.212Z,16.50
2022-10-15T21:32:12.996Z,16.50
2022-10-15T21:37:07.529Z,16.40
2022-10-15T21:39:34.314Z,16.40
2022-10-15T21:42:01.172Z,16.40
2022-10-15T21:44:28.002Z,16.50
2022-10-15T21:46:54.771Z,16.40
2022-10-15T21:49:21.687Z,16.40
2022-10-15T21:51:48.533Z,16.40
2022-10-15T21:54:15.314Z,16.40
2022-10-15T21:56:42.085Z,16.40
2022-10-15T21:59:09.041Z,16.40
2022-10-15T22:01:37.747Z,16.40
2022-10-15T22:04:09.815Z,16.40
2022-10-15T22:06:40.086Z,16.40
2022-10-15T22:09:08.124Z,16.40
2022-10-15T22:11:38.157Z,16.30
2022-10-15T22:14:07.476Z,16.40
2022-10-15T22:16:36.976Z,16.30
2022-10-15T22:19:05.109Z,16.30
2022-10-15T22:21:35.093Z,16.30
2022-10-15T22:24:17.152Z,16.30
2022-10-15T22:26:49.180Z,16.30
2022-10-15T22:29:31.685Z,16.30
2022-10-15T22:32:02.272Z,16.30
2022-10-15T22:34:29.126Z,16.20
2022-10-15T22:36:56.083Z,16.30
2022-10-15T22:39:22.881Z,16.30
2022-10-15T22:41:50.193Z,16.30
2022-10-15T22:44:21.322Z,16.30
2022-10-15T22:46:49.600Z,16.30
2022-10-15T22:49:19.687Z,16.30
2022-10-15T22:51:47.385Z,16.30
2022-10-15T22:54:15.810Z,16.30
2022-10-15T22:56:42.727Z,16.40
2022-10-15T23:01:41.706Z,16.30
2022-10-15T23:04:11.853Z,16.30
2022-10-15T23:06:38.944Z,16.30
2022-10-15T23:09:07.004Z,16.30
2022-10-15T23:11:40.448Z,16.30
2022-10-15T23:14:12.902Z,16.30
2022-10-15T23:16:42.419Z,16.30
2022-10-15T23:19:16.252Z,16.30
2022-10-15T23:21:57.629Z,16.30
2022-10-15T23:24:26.264Z,16.30
2022-10-15T23:26:53.510Z,16.30
2022-10-15T23:29:23.136Z,16.30
2022-10-15T23:31:51.309Z,16.30
2022-10-15T23:34:21.096Z,16.30
2022-10-15T23:36:48.374Z,16.20
2022-10-15T23:39:24.191Z,16.30
2022-10-15T23:41:51.019Z,16.20
2022-10-15T23:44:18.061Z,16.30
2022-10-15T23:46:45.189Z,16.20
2022-10-15T23:49:12.243Z,16.30
2022-10-15T23:51:39.486Z,16.20
2022-10-15T23:54:14.943Z,16.20
2022-10-15T23:56:42.169Z,16.20
2022-10-15T23:59:08.967Z,16.20
